createdAt,value
2018-12-25T00:00:32.633Z,30.66
2018-12-25T00:03:02.220Z,30.68
2018-12-25T00:05:31.827Z,30.68
2018-12-25T00:08:01.545Z,30.60
2018-12-25T00:10:31.154Z,30.66
2018-12-25T00:13:00.859Z,30.59
2018-12-25T00:15:30.681Z,30.60
2018-12-25T00:18:00.291Z,30.60
2018-12-25T00:20:29.896Z,30.52
2018-12-25T00:22:59.523Z,30.59
2018-12-25T00:25:29.221Z,30.66
2018-12-25T00:27:58.710Z,30.62
2018-12-25T00:30:28.435Z,30.53
2018-12-25T00:32:58.129Z,30.66
2018-12-25T00:35:27.653Z,30.65
2018-12-25T00:37:57.247Z,30.49
2018-12-25T00:40:26.857Z,30.50
2018-12-25T00:42:56.669Z,30.59
2018-12-25T00:45:26.295Z,30.53
2018-12-25T00:47:55.879Z,30.43
2018-12-25T00:50:25.501Z,30.44
2018-12-25T00:52:55.127Z,30.57
2018-12-25T00:55:24.759Z,30.44
2018-12-25T00:57:54.319Z,30.47
2018-12-25T01:00:23.899Z,30.39
2018-12-25T01:02:53.549Z,30.42
2018-12-25T01:05:23.266Z,30.48
2018-12-25T01:07:52.855Z,30.43
2018-12-25T01:10:22.580Z,30.41
2018-12-25T01:12:52.157Z,30.35
2018-12-25T01:15:21.802Z,30.36
2018-12-25T01:17:51.503Z,30.35
2018-12-25T01:20:21.212Z,30.27
2018-12-25T01:22:50.828Z,30.20
2018-12-25T01:25:20.366Z,30.30
2018-12-25T01:27:49.931Z,30.35
2018-12-25T01:30:19.609Z,30.33
2018-12-25T01:32:49.266Z,30.32
2018-12-25T01:35:18.875Z,30.32
2018-12-25T01:37:48.578Z,30.19
2018-12-25T01:40:18.196Z,30.09
2018-12-25T01:42:47.783Z,30.26
2018-12-25T01:45:17.404Z,30.19
2018-12-25T01:47:47.038Z,30.11
2018-12-25T01:50:16.732Z,30.10
2018-12-25T01:52:46.416Z,30.08
2018-12-25T01:55:16.042Z,29.94
2018-12-25T01:57:45.753Z,30.10
2018-12-25T02:00:15.380Z,30.03
2018-12-25T02:02:44.964Z,30.10
2018-12-25T02:05:14.679Z,30.05
2018-12-25T02:07:44.390Z,30.08
2018-12-25T02:10:13.988Z,29.95
2018-12-25T02:12:43.502Z,30.05
2018-12-25T02:15:13.208Z,30.05
2018-12-25T02:17:42.815Z,30.05
2018-12-25T02:20:12.422Z,29.93
2018-12-25T02:22:42.043Z,29.93
2018-12-25T02:25:11.711Z,29.94
2018-12-25T02:27:41.372Z,30.00
2018-12-25T02:30:10.992Z,29.88
2018-12-25T02:32:40.585Z,29.86
2018-12-25T02:35:10.179Z,29.91
2018-12-25T02:37:39.906Z,29.91
2018-12-25T02:40:09.724Z,29.73
2018-12-25T02:42:39.318Z,29.68
2018-12-25T02:45:09.020Z,29.74
2018-12-25T02:47:38.645Z,29.58
2018-12-25T02:50:08.134Z,29.70
2018-12-25T02:52:37.858Z,29.65
2018-12-25T02:55:07.497Z,29.62
2018-12-25T02:57:37.183Z,29.68
2018-12-25T03:00:07.584Z,29.69
2018-12-25T03:02:37.112Z,29.63
2018-12-25T03:05:06.935Z,29.63
2018-12-25T03:07:36.843Z,29.55
2018-12-25T03:10:07.666Z,29.64
2018-12-25T03:12:37.187Z,29.54
2018-12-25T03:15:07.197Z,29.60
2018-12-25T03:17:36.914Z,29.63
2018-12-25T03:20:06.719Z,29.52
2018-12-25T03:22:36.231Z,29.51
2018-12-25T03:25:06.019Z,29.64
2018-12-25T03:27:35.588Z,29.53
2018-12-25T03:30:05.465Z,29.52
2018-12-25T03:32:35.045Z,29.46
2018-12-25T03:35:04.565Z,29.47
2018-12-25T03:37:34.297Z,29.40
2018-12-25T03:40:04.115Z,29.44
2018-12-25T03:42:33.706Z,29.40
2018-12-25T03:45:03.222Z,29.41
2018-12-25T03:47:32.926Z,29.41
2018-12-25T03:50:10.462Z,29.36
2018-12-25T03:52:33.795Z,29.28
2018-12-25T03:55:03.381Z,29.35
2018-12-25T03:57:33.206Z,29.32
2018-12-25T04:00:02.977Z,29.29
2018-12-25T04:02:32.623Z,29.30
2018-12-25T04:05:02.218Z,29.34
2018-12-25T04:07:31.769Z,29.18
2018-12-25T04:10:01.456Z,29.23
2018-12-25T04:12:31.032Z,29.23
2018-12-25T04:15:00.673Z,29.24
2018-12-25T04:17:30.275Z,29.07
2018-12-25T04:19:59.869Z,29.10
2018-12-25T04:22:29.604Z,29.17
2018-12-25T04:24:59.131Z,29.20
2018-12-25T04:27:28.709Z,29.11
2018-12-25T04:29:58.207Z,29.11
2018-12-25T04:32:27.878Z,29.05
2018-12-25T04:34:57.548Z,28.94
2018-12-25T04:37:27.142Z,28.98
2018-12-25T04:39:56.837Z,28.91
2018-12-25T04:42:26.572Z,29.07
2018-12-25T04:44:56.148Z,29.00
2018-12-25T04:47:25.781Z,28.98
2018-12-25T04:49:55.365Z,29.05
2018-12-25T04:52:25.102Z,29.08
2018-12-25T04:54:54.720Z,29.05
2018-12-25T04:57:24.213Z,28.87
2018-12-25T04:59:53.924Z,29.03
2018-12-25T05:02:23.545Z,29.08
2018-12-25T05:04:53.146Z,29.03
2018-12-25T05:07:22.752Z,28.97
2018-12-25T05:09:52.315Z,28.85
2018-12-25T05:12:21.987Z,28.87
2018-12-25T05:14:51.705Z,28.95
2018-12-25T05:17:21.285Z,29.02
2018-12-25T05:19:50.948Z,29.05
2018-12-25T05:22:20.540Z,29.07
2018-12-25T05:24:50.208Z,29.10
2018-12-25T05:27:19.723Z,29.14
2018-12-25T05:29:50.739Z,29.07
2018-12-25T05:32:20.685Z,29.14
2018-12-25T05:34:50.133Z,29.11
2018-12-25T05:37:19.807Z,29.04
2018-12-25T05:39:49.437Z,29.15
2018-12-25T05:42:19.896Z,29.12
2018-12-25T05:44:49.425Z,28.98
2018-12-25T05:47:18.942Z,29.06
2018-12-25T05:49:48.549Z,29.11
2018-12-25T05:52:18.150Z,28.95
2018-12-25T05:54:47.661Z,29.05
2018-12-25T05:57:17.136Z,29.07
2018-12-25T05:59:46.777Z,29.07
2018-12-25T06:02:16.376Z,29.07
2018-12-25T06:04:45.849Z,29.02
2018-12-25T06:07:15.384Z,29.16
2018-12-25T06:09:44.913Z,29.14
2018-12-25T06:12:14.461Z,29.04
2018-12-25T06:14:44.022Z,28.99
2018-12-25T06:17:13.611Z,29.03
2018-12-25T06:19:43.516Z,29.07
2018-12-25T06:22:13.046Z,28.97
2018-12-25T06:24:42.627Z,29.05
2018-12-25T06:27:12.159Z,28.94
2018-12-25T06:29:41.773Z,29.00
2018-12-25T06:32:11.376Z,29.00
2018-12-25T06:34:40.882Z,29.11
2018-12-25T06:37:10.349Z,29.03
2018-12-25T06:39:39.905Z,28.93
2018-12-25T06:42:09.504Z,28.86
2018-12-25T06:44:38.983Z,28.74
2018-12-25T06:47:08.516Z,28.93
2018-12-25T06:49:38.123Z,28.85
2018-12-25T06:52:07.724Z,28.88
2018-12-25T06:54:39.356Z,28.90
2018-12-25T06:57:08.593Z,28.74
2018-12-25T06:59:38.097Z,28.77
2018-12-25T07:02:07.593Z,28.76
2018-12-25T07:04:37.288Z,28.82
2018-12-25T07:07:06.817Z,28.83
2018-12-25T07:09:36.430Z,28.69
2018-12-25T07:12:06.001Z,28.71
2018-12-25T07:14:35.549Z,28.80
2018-12-25T07:17:05.099Z,28.61
2018-12-25T07:19:34.661Z,28.73
2018-12-25T07:22:04.357Z,28.68
2018-12-25T07:24:33.864Z,28.51
2018-12-25T07:27:03.467Z,28.67
2018-12-25T07:29:32.996Z,28.72
2018-12-25T07:32:02.457Z,28.68
2018-12-25T07:34:32.105Z,28.67
2018-12-25T07:37:01.665Z,28.59
2018-12-25T07:39:31.399Z,28.57
2018-12-25T07:42:00.918Z,28.63
2018-12-25T07:44:30.606Z,28.65
2018-12-25T07:47:00.143Z,28.66
2018-12-25T07:49:29.717Z,28.51
2018-12-25T07:51:59.245Z,28.57
2018-12-25T07:54:28.762Z,28.43
2018-12-25T07:56:58.328Z,28.57
2018-12-25T07:59:27.985Z,28.51
2018-12-25T08:01:57.582Z,28.54
2018-12-25T08:04:27.166Z,28.52
2018-12-25T08:06:56.807Z,28.44
2018-12-25T08:09:26.277Z,28.45
2018-12-25T08:11:55.810Z,28.42
2018-12-25T08:14:25.427Z,28.58
2018-12-25T08:16:54.999Z,28.45
2018-12-25T08:19:24.276Z,27.99
2018-12-25T08:21:53.829Z,27.72
2018-12-25T08:24:23.632Z,28.26
2018-12-25T08:26:53.149Z,28.20
2018-12-25T08:29:22.673Z,27.82
2018-12-25T08:31:52.345Z,27.50
2018-12-25T08:34:21.891Z,27.70
2018-12-25T08:36:51.461Z,27.99
2018-12-25T08:39:21.005Z,28.21
2018-12-25T08:41:51.458Z,28.14
2018-12-25T08:44:21.033Z,28.06
2018-12-25T08:46:50.647Z,28.17
2018-12-25T08:49:20.166Z,28.37
2018-12-25T08:51:49.860Z,30.51
2018-12-25T08:54:19.434Z,29.97
2018-12-25T08:56:49.076Z,29.33
2018-12-25T08:59:18.562Z,29.55
2018-12-25T09:01:48.088Z,29.85
2018-12-25T09:04:17.911Z,31.15
2018-12-25T09:06:47.505Z,30.69
2018-12-25T09:09:17.630Z,31.00
2018-12-25T09:11:47.451Z,33.17
2018-12-25T09:14:17.094Z,33.01
2018-12-25T09:16:46.778Z,32.62
2018-12-25T09:19:16.501Z,32.27
2018-12-25T09:21:46.597Z,31.83
2018-12-25T09:24:16.397Z,30.39
2018-12-25T09:26:46.129Z,31.81
2018-12-25T09:29:15.728Z,33.44
2018-12-25T09:31:45.239Z,34.43
2018-12-25T09:34:14.843Z,33.87
2018-12-25T09:36:44.431Z,32.07
2018-12-25T09:39:14.173Z,31.78
2018-12-25T09:41:43.892Z,32.60
2018-12-25T09:44:13.516Z,33.50
2018-12-25T09:46:43.132Z,34.06
2018-12-25T09:49:12.794Z,35.54
2018-12-25T09:51:42.431Z,35.52
2018-12-25T09:54:11.983Z,34.11
2018-12-25T09:56:41.541Z,34.61
2018-12-25T09:59:11.130Z,30.48
2018-12-25T10:01:40.680Z,31.50
2018-12-25T10:04:10.292Z,33.81
2018-12-25T10:06:40.112Z,35.04
2018-12-25T10:09:10.126Z,35.12
2018-12-25T10:11:44.405Z,34.04
2018-12-25T10:14:11.097Z,32.12
2018-12-25T10:16:40.758Z,34.01
2018-12-25T10:19:10.357Z,33.46
2018-12-25T10:21:39.973Z,33.79
2018-12-25T10:24:09.692Z,35.98
2018-12-25T10:26:39.297Z,36.79
2018-12-25T10:29:09.111Z,36.26
2018-12-25T10:31:38.714Z,36.75
2018-12-25T10:34:08.226Z,34.13
2018-12-25T10:36:37.939Z,34.56
2018-12-25T10:39:08.267Z,35.63
2018-12-25T10:41:37.902Z,37.37
2018-12-25T10:44:07.471Z,37.20
2018-12-25T10:46:37.089Z,36.82
2018-12-25T10:49:06.725Z,37.60
2018-12-25T10:51:36.311Z,34.41
2018-12-25T10:54:05.936Z,35.17
2018-12-25T10:56:35.625Z,37.06
2018-12-25T10:59:05.265Z,37.58
2018-12-25T11:01:36.831Z,37.76
2018-12-25T11:04:06.419Z,37.88
2018-12-25T11:06:36.109Z,38.24
2018-12-25T11:09:06.153Z,35.61
2018-12-25T11:11:35.958Z,35.59
2018-12-25T11:14:05.547Z,36.60
2018-12-25T11:16:35.160Z,37.71
2018-12-25T11:19:04.851Z,37.97
2018-12-25T11:21:34.581Z,37.90
2018-12-25T11:24:04.071Z,37.87
2018-12-25T11:26:33.651Z,38.60
2018-12-25T11:29:03.182Z,36.84
2018-12-25T11:31:32.699Z,38.11
2018-12-25T11:34:02.689Z,38.30
2018-12-25T11:36:32.440Z,38.72
2018-12-25T11:39:02.152Z,38.79
2018-12-25T11:41:31.858Z,38.29
2018-12-25T11:44:01.558Z,39.45
2018-12-25T11:46:31.279Z,37.64
2018-12-25T11:49:00.866Z,38.47
2018-12-25T11:51:30.594Z,39.11
2018-12-25T11:54:00.302Z,38.81
2018-12-25T11:56:29.909Z,39.03
2018-12-25T11:58:59.622Z,39.13
2018-12-25T12:01:29.343Z,39.80
2018-12-25T12:03:59.040Z,39.03
2018-12-25T12:06:28.655Z,39.23
2018-12-25T12:08:58.359Z,39.15
2018-12-25T12:11:27.969Z,39.58
2018-12-25T12:13:57.686Z,39.58
2018-12-25T12:16:27.400Z,39.64
2018-12-25T12:18:57.098Z,39.83
2018-12-25T12:21:26.816Z,38.76
2018-12-25T12:23:56.405Z,39.54
2018-12-25T12:26:26.039Z,39.84
2018-12-25T12:28:55.629Z,39.73
2018-12-25T12:31:25.363Z,39.61
2018-12-25T12:33:54.955Z,39.57
2018-12-25T12:36:24.473Z,40.57
2018-12-25T12:38:54.171Z,36.86
2018-12-25T12:41:23.791Z,36.25
2018-12-25T12:43:53.490Z,37.47
2018-12-25T12:46:23.304Z,39.33
2018-12-25T12:48:52.922Z,39.38
2018-12-25T12:51:22.627Z,39.98
2018-12-25T12:53:52.304Z,39.80
2018-12-25T12:56:21.945Z,39.79
2018-12-25T12:58:51.577Z,40.04
2018-12-25T13:01:21.266Z,39.78
2018-12-25T13:03:50.986Z,39.61
2018-12-25T13:06:20.569Z,40.34
2018-12-25T13:08:50.297Z,40.34
2018-12-25T13:11:19.903Z,40.09
2018-12-25T13:13:49.623Z,39.92
2018-12-25T13:16:19.214Z,40.90
2018-12-25T13:18:48.945Z,39.66
2018-12-25T13:21:18.742Z,39.98
2018-12-25T13:23:48.257Z,40.69
2018-12-25T13:26:18.076Z,40.64
2018-12-25T13:28:47.803Z,40.96
2018-12-25T13:31:17.485Z,40.92
2018-12-25T13:33:47.093Z,41.53
2018-12-25T13:36:17.111Z,40.59
2018-12-25T13:38:46.740Z,40.44
2018-12-25T13:41:16.436Z,40.46
2018-12-25T13:43:46.050Z,41.14
2018-12-25T13:46:15.758Z,40.81
2018-12-25T13:48:45.473Z,41.03
2018-12-25T13:51:15.079Z,41.70
2018-12-25T13:53:44.788Z,40.45
2018-12-25T13:56:14.369Z,39.81
2018-12-25T13:58:44.007Z,40.80
2018-12-25T14:01:13.767Z,40.97
2018-12-25T14:03:43.432Z,40.42
2018-12-25T14:06:13.181Z,40.77
2018-12-25T14:08:42.750Z,37.61
2018-12-25T14:11:12.451Z,38.12
2018-12-25T14:13:42.100Z,36.00
2018-12-25T14:16:11.777Z,37.49
2018-12-25T14:18:41.414Z,40.07
2018-12-25T14:21:11.094Z,40.06
2018-12-25T14:23:40.816Z,38.35
2018-12-25T14:26:10.519Z,40.42
2018-12-25T14:28:40.142Z,39.08
2018-12-25T14:31:09.758Z,39.64
2018-12-25T14:33:39.450Z,36.47
2018-12-25T14:36:09.070Z,38.55
2018-12-25T14:38:38.685Z,39.98
2018-12-25T14:41:09.394Z,38.81
2018-12-25T14:43:39.228Z,38.59
2018-12-25T14:46:08.700Z,36.60
2018-12-25T14:48:38.222Z,35.98
2018-12-25T14:51:07.928Z,35.73
2018-12-25T14:53:37.637Z,38.03
2018-12-25T14:56:07.457Z,39.26
2018-12-25T14:58:36.835Z,40.05
2018-12-25T15:01:06.351Z,40.52
2018-12-25T15:03:35.983Z,37.85
2018-12-25T15:06:05.684Z,37.27
2018-12-25T15:08:35.746Z,36.73
2018-12-25T15:11:05.554Z,40.08
2018-12-25T15:13:35.170Z,41.03
2018-12-25T15:16:04.881Z,38.63
2018-12-25T15:18:34.551Z,38.04
2018-12-25T15:21:04.172Z,37.78
2018-12-25T15:23:33.774Z,40.04
2018-12-25T15:26:03.477Z,41.00
2018-12-25T15:28:33.192Z,42.16
2018-12-25T15:31:02.816Z,41.70
2018-12-25T15:33:32.513Z,39.88
2018-12-25T15:36:02.217Z,38.68
2018-12-25T15:38:32.150Z,38.62
2018-12-25T15:41:01.731Z,39.16
2018-12-25T15:43:31.356Z,40.85
2018-12-25T15:46:02.441Z,40.90
2018-12-25T15:48:32.120Z,40.87
2018-12-25T15:51:01.679Z,39.08
2018-12-25T15:53:36.797Z,40.02
2018-12-25T15:56:02.462Z,40.08
2018-12-25T15:58:32.035Z,40.10
2018-12-25T16:01:01.777Z,41.03
2018-12-25T16:03:31.395Z,42.21
2018-12-25T16:06:01.105Z,41.25
2018-12-25T16:08:30.601Z,38.95
2018-12-25T16:11:00.207Z,38.37
2018-12-25T16:13:29.927Z,38.13
2018-12-25T16:15:59.623Z,37.69
2018-12-25T16:18:29.109Z,36.90
2018-12-25T16:20:58.632Z,37.08
2018-12-25T16:23:28.461Z,36.88
2018-12-25T16:25:58.062Z,36.96
2018-12-25T16:28:27.783Z,36.77
2018-12-25T16:30:57.500Z,36.76
2018-12-25T16:33:27.211Z,36.47
2018-12-25T16:35:56.831Z,36.29
2018-12-25T16:38:26.374Z,36.38
2018-12-25T16:40:56.109Z,36.15
2018-12-25T16:43:25.734Z,35.62
2018-12-25T16:45:55.567Z,35.75
2018-12-25T16:48:25.269Z,35.75
2018-12-25T16:50:54.868Z,35.68
2018-12-25T16:53:24.617Z,35.87
2018-12-25T16:55:54.306Z,35.76
2018-12-25T16:58:23.705Z,35.64
2018-12-25T17:00:53.417Z,35.60
2018-12-25T17:03:23.014Z,35.34
2018-12-25T17:05:52.614Z,34.98
2018-12-25T17:08:22.331Z,34.94
2018-12-25T17:10:52.071Z,35.10
2018-12-25T17:13:21.691Z,35.25
2018-12-25T17:15:51.425Z,35.34
2018-12-25T17:18:20.965Z,33.07
2018-12-25T17:20:50.738Z,32.90
2018-12-25T17:23:20.287Z,33.48
2018-12-25T17:25:49.871Z,33.11
2018-12-25T17:28:27.639Z,33.21
2018-12-25T17:30:50.656Z,33.74
2018-12-25T17:33:20.249Z,33.31
2018-12-25T17:35:49.933Z,33.30
2018-12-25T17:38:19.704Z,33.58
2018-12-25T17:40:49.343Z,33.69
2018-12-25T17:43:18.949Z,33.67
2018-12-25T17:45:48.478Z,33.13
2018-12-25T17:48:18.108Z,33.36
2018-12-25T17:50:47.838Z,32.97
2018-12-25T17:53:17.432Z,32.89
2018-12-25T17:55:47.049Z,32.86
2018-12-25T17:58:16.746Z,33.08
2018-12-25T18:00:46.332Z,33.10
2018-12-25T18:03:15.868Z,33.14
2018-12-25T18:05:45.594Z,32.93
2018-12-25T18:08:15.221Z,32.98
2018-12-25T18:10:44.896Z,32.83
2018-12-25T18:13:14.506Z,32.98
2018-12-25T18:15:44.097Z,32.75
2018-12-25T18:18:13.588Z,32.89
2018-12-25T18:20:43.135Z,32.97
2018-12-25T18:23:12.704Z,33.00
2018-12-25T18:25:42.263Z,33.08
2018-12-25T18:28:11.849Z,33.45
2018-12-25T18:30:41.571Z,33.52
2018-12-25T18:33:11.193Z,33.13
2018-12-25T18:35:40.785Z,32.73
2018-12-25T18:38:11.562Z,32.68
2018-12-25T18:40:41.343Z,32.61
2018-12-25T18:43:10.937Z,32.56
2018-12-25T18:45:40.547Z,32.52
2018-12-25T18:48:10.162Z,32.50
2018-12-25T18:50:39.889Z,32.46
2018-12-25T18:53:09.577Z,32.29
2018-12-25T18:55:40.321Z,32.37
2018-12-25T18:58:10.225Z,32.22
2018-12-25T19:00:39.804Z,32.08
2018-12-25T19:03:09.421Z,31.98
2018-12-25T19:05:39.032Z,31.99
2018-12-25T19:08:08.657Z,31.95
2018-12-25T19:10:38.376Z,31.96
2018-12-25T19:13:07.973Z,31.86
2018-12-25T19:15:37.687Z,31.87
2018-12-25T19:18:10.926Z,31.80
2018-12-25T19:20:40.489Z,31.98
2018-12-25T19:23:10.106Z,31.79
2018-12-25T19:25:39.811Z,31.66
2018-12-25T19:28:09.511Z,31.60
2018-12-25T19:30:40.638Z,31.43
2018-12-25T19:33:10.268Z,31.46
2018-12-25T19:35:39.986Z,31.39
2018-12-25T19:38:09.592Z,31.38
2018-12-25T19:40:39.222Z,31.43
2018-12-25T19:43:08.777Z,31.59
2018-12-25T19:45:38.303Z,31.35
2018-12-25T19:48:08.040Z,31.15
2018-12-25T19:50:37.668Z,31.05
2018-12-25T19:53:07.240Z,31.04
2018-12-25T19:55:36.861Z,31.16
2018-12-25T19:58:06.468Z,31.27
2018-12-25T20:00:36.166Z,31.27
2018-12-25T20:03:14.824Z,31.15
2018-12-25T20:06:25.919Z,30.97
2018-12-25T20:09:50.565Z,31.00
2018-12-25T20:13:28.281Z,30.88
2018-12-25T20:16:32.599Z,31.03
2018-12-25T20:19:25.879Z,31.13
2018-12-25T20:23:00.929Z,31.05
2018-12-25T20:25:53.559Z,31.18
2018-12-25T20:29:04.137Z,30.70
2018-12-25T20:32:35.685Z,30.77
2018-12-25T20:35:58.352Z,30.97
2018-12-25T20:39:05.043Z,31.28
2018-12-25T20:41:54.592Z,31.38
2018-12-25T20:45:00.879Z,31.36
2018-12-25T20:48:20.506Z,30.94
2018-12-25T20:51:48.839Z,30.98
2018-12-25T20:54:45.475Z,31.27
2018-12-25T20:57:55.636Z,31.45
2018-12-25T21:01:20.944Z,31.56
2018-12-25T21:04:58.758Z,31.77
2018-12-25T21:08:11.017Z,31.35
2018-12-25T21:11:17.538Z,31.84
2018-12-25T21:14:49.414Z,31.35
2018-12-25T21:17:58.865Z,31.65
2018-12-25T21:21:17.405Z,31.56
2018-12-25T21:24:22.853Z,31.52
2018-12-25T21:27:28.339Z,31.19
2018-12-25T21:29:58.127Z,31.32
2018-12-25T21:32:27.962Z,31.18
2018-12-25T21:35:04.802Z,31.27
2018-12-25T21:37:34.415Z,31.66
2018-12-25T21:40:04.637Z,31.49
2018-12-25T21:42:34.172Z,31.33
2018-12-25T21:45:03.947Z,31.23
2018-12-25T21:47:33.562Z,31.27
2018-12-25T21:50:03.570Z,31.31
2018-12-25T21:52:33.273Z,31.29
2018-12-25T21:55:02.793Z,31.14
2018-12-25T21:57:32.390Z,31.33
2018-12-25T22:00:01.819Z,31.46
2018-12-25T22:02:31.425Z,31.12
2018-12-25T22:05:00.891Z,31.00
2018-12-25T22:07:30.597Z,31.07
2018-12-25T22:10:00.253Z,31.06
2018-12-25T22:12:29.746Z,31.27
2018-12-25T22:14:59.252Z,31.17
2018-12-25T22:17:28.848Z,31.03
2018-12-25T22:19:58.477Z,31.04
2018-12-25T22:22:27.984Z,31.08
2018-12-25T22:24:57.656Z,30.84
2018-12-25T22:27:27.375Z,30.72
2018-12-25T22:29:57.551Z,30.60
2018-12-25T22:32:27.241Z,30.47
2018-12-25T22:34:56.863Z,30.81
2018-12-25T22:37:26.694Z,31.08
2018-12-25T22:39:56.259Z,30.99
2018-12-25T22:42:25.976Z,30.89
2018-12-25T22:44:55.481Z,30.75
2018-12-25T22:47:25.198Z,30.65
2018-12-25T22:49:54.909Z,30.52
2018-12-25T22:52:24.584Z,30.37
2018-12-25T22:54:54.313Z,30.50
2018-12-25T22:57:23.928Z,30.77
2018-12-25T22:59:53.650Z,30.76
2018-12-25T23:02:23.247Z,30.79
2018-12-25T23:04:53.116Z,30.65
2018-12-25T23:07:22.865Z,30.50
2018-12-25T23:09:52.673Z,30.46
2018-12-25T23:12:22.374Z,30.40
2018-12-25T23:14:52.284Z,30.39
2018-12-25T23:17:22.121Z,30.71
2018-12-25T23:19:51.931Z,30.83
2018-12-25T23:22:21.740Z,30.74
2018-12-25T23:24:51.671Z,30.91
2018-12-25T23:27:21.460Z,30.65
2018-12-25T23:29:51.306Z,30.43
2018-12-25T23:32:21.104Z,30.46
2018-12-25T23:34:50.902Z,30.34
2018-12-25T23:37:20.665Z,30.29
2018-12-25T23:39:50.627Z,30.34
2018-12-25T23:42:20.872Z,30.66
2018-12-25T23:44:50.671Z,30.78
2018-12-25T23:47:20.517Z,30.71
2018-12-25T23:49:50.190Z,30.47
2018-12-25T23:52:20.118Z,30.39
2018-12-25T23:54:50.022Z,30.25
2018-12-25T23:57:19.841Z,30.32
2018-12-25T23:59:49.738Z,30.17
